Time;durP1;ratioP1;P1;durP2;ratioP2;P2;SDS_P1;SDS_P2;PMS_P1;PMS_P2;Temp;Humidity;BMP_temperature;BMP_pressure;BME280_temperature;BME280_humidity;BME280_pressure;Samples;Min_cycle;Max_cycle;Signal;HPM_P1;HPM_P2
2022/10/17 00:00:48;;;;;;;11.03;8.25;;;;;;;6.64;66.12;101319.57;1773438;80;21053;-78
2022/10/17 00:03:15;;;;;;;11.18;8.83;;;;;;;6.60;66.14;101324.21;1740439;81;21045;-79
2022/10/17 00:05:45;;;;;;;14.65;8.33;;;;;;;6.57;66.32;101324.44;1743318;82;21062;-78
2022/10/17 00:08:14;;;;;;;14.33;8.45;;;;;;;6.53;66.52;101328.69;1774237;80;21105;-80
2022/10/17 00:10:42;;;;;;;13.15;9.35;;;;;;;6.47;66.70;101329.48;1742509;81;21041;-77
2022/10/17 00:13:08;;;;;;;12.82;8.95;;;;;;;6.42;66.75;101324.98;1732051;81;21053;-76
2022/10/17 00:15:35;;;;;;;12.53;9.15;;;;;;;6.39;66.93;101330.45;1795699;78;21424;-79
2022/10/17 00:18:03;;;;;;;12.00;9.15;;;;;;;6.37;67.04;101332.35;1803050;78;21041;-79
2022/10/17 00:20:31;;;;;;;14.53;9.05;;;;;;;6.34;67.05;101331.25;1812745;79;20994;-80
2022/10/17 00:23:00;;;;;;;12.63;7.92;;;;;;;6.30;67.16;101333.25;1789600;79;21041;-79
2022/10/17 00:25:28;;;;;;;13.55;9.00;;;;;;;6.43;66.99;101327.14;1785250;77;21555;-81
2022/10/17 00:27:55;;;;;;;12.63;8.23;;;;;;;6.48;66.81;101330.33;1787727;79;21078;-77
2022/10/17 00:30:23;;;;;;;14.75;7.80;;;;;;;6.46;66.69;101336.19;1806659;77;21062;-78
2022/10/17 00:32:51;;;;;;;14.47;8.78;;;;;;;6.43;66.70;101333.73;1804986;78;21326;-77
2022/10/17 00:35:18;;;;;;;12.68;8.13;;;;;;;6.41;66.91;101331.67;1790492;79;21029;-78
2022/10/17 00:37:46;;;;;;;12.85;8.85;;;;;;;6.38;66.88;101330.58;1798798;79;21042;-78
2022/10/17 00:40:12;;;;;;;13.38;8.13;;;;;;;6.34;66.86;101328.61;1814925;77;21163;-79
2022/10/17 00:42:39;;;;;;;13.70;8.35;;;;;;;6.30;67.13;101333.73;1812892;79;21085;-78
2022/10/17 00:45:11;;;;;;;12.23;8.05;;;;;;;6.25;67.19;101317.34;1801245;78;21724;-77
2022/10/17 00:47:37;;;;;;;12.85;9.03;;;;;;;6.22;67.26;101314.44;1772513;79;21046;-79
2022/10/17 00:50:05;;;;;;;14.60;8.80;;;;;;;6.18;67.45;101318.23;1812077;78;21049;-77
2022/10/17 00:52:31;;;;;;;14.05;8.80;;;;;;;6.15;67.51;101318.42;1811694;77;21085;-78
2022/10/17 00:55:12;;;;;;;12.45;8.30;;;;;;;6.13;67.70;101311.56;1812969;79;21042;-79
2022/10/17 00:57:38;;;;;;;11.97;8.38;;;;;;;6.22;67.55;101315.76;1804069;79;21045;-79
2022/10/17 01:00:07;;;;;;;16.30;9.25;;;;;;;6.23;67.38;101307.36;1774308;80;21017;-78
2022/10/17 01:02:36;;;;;;;11.70;8.58;;;;;;;6.19;67.41;101313.79;1793586;79;21043;-77
2022/10/17 01:05:02;;;;;;;11.43;9.08;;;;;;;6.14;67.47;101307.48;1810876;78;21274;-77
2022/10/17 01:07:29;;;;;;;15.38;8.95;;;;;;;6.10;67.50;101314.78;1790572;77;21009;-76
2022/10/17 01:09:57;;;;;;;11.20;8.63;;;;;;;6.09;67.55;101313.07;1772566;78;21080;-77
2022/10/17 01:12:34;;;;;;;12.07;8.73;;;;;;;6.07;67.66;101316.28;1793579;79;21073;-76
2022/10/17 01:15:33;;;;;;;12.68;8.68;;;;;;;6.06;67.74;101321.66;1812609;79;21057;-77
2022/10/17 01:18:33;;;;;;;10.15;8.38;;;;;;;6.03;67.89;101315.28;1774721;80;22420;-78
2022/10/17 01:21:47;;;;;;;10.60;7.65;;;;;;;6.00;67.96;101308.39;1783451;79;21097;-77
2022/10/17 01:24:27;;;;;;;12.68;8.48;;;;;;;6.08;67.83;101317.12;1810891;78;21244;-76
2022/10/17 01:27:24;;;;;;;10.70;7.95;;;;;;;6.18;67.50;101308.13;1812780;79;20994;-77
2022/10/17 01:30:48;;;;;;;11.35;8.38;;;;;;;6.14;67.55;101307.48;1814367;78;20855;-79
2022/10/17 01:33:32;;;;;;;14.23;8.63;;;;;;;6.13;67.57;101311.56;1785975;79;21320;-78
2022/10/17 01:36:10;;;;;;;;;;;;;;;6.12;67.36;101308.05;1815773;79;21049;-82
2022/10/17 01:38:49;;;;;;;10.43;7.75;;;;;;;6.13;67.36;101304.97;1812760;78;20142;-82
2022/10/17 01:41:40;;;;;;;10.63;7.87;;;;;;;6.10;67.35;101309.50;1801443;79;21568;-79
2022/10/17 01:44:13;;;;;;;12.53;8.85;;;;;;;6.10;67.19;101298.08;1722585;80;21087;-76
2022/10/17 01:46:42;;;;;;;10.90;7.50;;;;;;;6.09;67.22;101306.95;1780837;80;21700;-78
2022/10/17 01:49:10;;;;;;;11.70;8.25;;;;;;;6.07;67.23;101303.09;1785173;79;21089;-79
2022/10/17 01:51:47;;;;;;;12.07;8.25;;;;;;;6.05;67.17;101302.34;1791529;79;20998;-80
2022/10/17 01:54:19;;;;;;;12.75;8.08;;;;;;;6.03;67.20;101296.81;1788740;79;21025;-75
2022/10/17 01:56:46;;;;;;;14.95;7.78;;;;;;;6.00;67.37;101299.16;1800634;78;21509;-79
2022/10/17 01:59:18;;;;;;;12.45;6.90;;;;;;;6.00;67.33;101297.00;1781034;80;21046;-78
2022/10/17 02:01:46;;;;;;;8.23;6.60;;;;;;;6.01;67.37;101300.86;1782324;79;21042;-80
2022/10/17 02:04:12;;;;;;;12.00;7.87;;;;;;;6.17;67.08;101307.77;1791101;78;21057;-77
2022/10/17 02:06:39;;;;;;;12.70;6.95;;;;;;;6.17;66.96;101296.73;1780829;79;21009;-77
2022/10/17 02:09:24;;;;;;;12.45;7.90;;;;;;;6.17;66.97;101305.13;1801244;79;21077;-79
2022/10/17 02:12:19;;;;;;;10.25;7.85;;;;;;;6.14;67.11;101306.64;1776793;79;21771;-76
2022/10/17 02:15:17;;;;;;;14.07;8.45;;;;;;;6.13;67.07;101302.33;1792340;78;21052;-77
2022/10/17 02:18:04;;;;;;;12.25;7.65;;;;;;;6.08;67.25;101303.48;1794249;79;21080;-79
2022/10/17 02:21:00;;;;;;;10.25;7.28;;;;;;;6.06;67.22;101307.98;1808715;77;21581;-77
2022/10/17 02:23:54;;;;;;;10.88;8.18;;;;;;;6.03;67.37;101295.49;1783831;80;20915;-81
2022/10/17 02:26:43;;;;;;;13.03;8.80;;;;;;;6.00;67.35;101292.56;1804866;79;21173;-81
2022/10/17 02:29:20;;;;;;;11.80;7.55;;;;;;;5.96;67.54;101290.23;1801436;79;21053;-79
2022/10/17 02:32:01;;;;;;;11.65;8.90;;;;;;;5.93;67.53;101300.49;1804539;78;20982;-80
2022/10/17 02:34:38;;;;;;;10.88;8.00;;;;;;;5.90;67.65;101290.13;1803444;77;21030;-79
2022/10/17 02:37:06;;;;;;;11.45;7.45;;;;;;;6.00;67.56;101304.44;1809075;78;21530;-78
2022/10/17 02:39:32;;;;;;;11.73;8.13;;;;;;;6.12;67.09;101301.94;1812873;78;21073;-77
2022/10/17 02:42:02;;;;;;;12.30;8.60;;;;;;;6.11;67.05;101291.87;1780707;77;21494;-80
2022/10/17 02:44:29;;;;;;;14.60;8.93;;;;;;;6.05;67.01;101286.52;1787848;79;21029;-78
2022/10/17 02:47:14;;;;;;;10.80;7.80;;;;;;;6.09;67.05;101289.81;1790013;78;21037;-82
2022/10/17 02:49:42;;;;;;;13.25;7.97;;;;;;;6.09;66.97;101295.08;1763432;79;21058;-79
2022/10/17 02:52:23;;;;;;;12.65;9.15;;;;;;;6.07;66.98;101287.27;1769487;80;21191;-79
2022/10/17 02:55:34;;;;;;;9.95;8.00;;;;;;;6.06;66.91;101282.92;1796313;77;21050;-80
2022/10/17 02:58:12;;;;;;;12.73;8.78;;;;;;;6.03;66.92;101296.33;1817392;78;21052;-79
2022/10/17 03:00:39;;;;;;;9.85;7.87;;;;;;;6.00;67.04;101283.33;1788585;79;21093;-80
2022/10/17 03:03:25;;;;;;;12.58;8.85;;;;;;;6.00;66.98;101303.11;1808658;79;21037;-78
2022/10/17 03:05:52;;;;;;;12.75;8.50;;;;;;;6.01;67.08;101314.05;1828437;78;21079;-79
2022/10/17 03:08:21;;;;;;;12.35;8.95;;;;;;;5.99;67.02;101321.23;1831711;77;21003;-77
2022/10/17 03:10:48;;;;;;;17.20;8.53;;;;;;;6.02;67.01;101322.80;1806610;79;21017;-78
2022/10/17 03:13:17;;;;;;;13.72;8.55;;;;;;;6.02;67.07;101328.92;1796018;79;21033;-76
2022/10/17 03:15:45;;;;;;;10.80;7.65;;;;;;;6.03;66.95;101339.86;1781987;79;21006;-79
2022/10/17 03:18:12;;;;;;;12.18;9.00;;;;;;;6.04;66.89;101341.53;1777491;79;21240;-79
2022/10/17 03:20:40;;;;;;;11.48;8.10;;;;;;;6.05;66.93;101344.56;1775320;79;21018;-77
2022/10/17 03:23:06;;;;;;;10.68;8.40;;;;;;;6.06;66.93;101349.36;1828562;78;21104;-78
2022/10/17 03:25:33;;;;;;;11.63;8.25;;;;;;;6.05;66.89;101349.84;1798157;78;21041;-80
2022/10/17 03:28:00;;;;;;;13.35;8.60;;;;;;;6.06;66.93;101350.68;1792227;79;21128;-79
2022/10/17 03:30:27;;;;;;;12.73;8.80;;;;;;;6.04;66.96;101350.77;1802872;77;21138;-77
2022/10/17 03:32:54;;;;;;;10.78;7.85;;;;;;;6.05;66.84;101352.48;1803395;78;21070;-78
2022/10/17 03:35:20;;;;;;;11.45;7.60;;;;;;;6.05;66.94;101351.16;1794113;79;20999;-80
2022/10/17 03:37:49;;;;;;;9.90;7.35;;;;;;;6.06;66.95;101354.63;1798027;79;21158;-78
2022/10/17 03:40:16;;;;;;;10.32;7.08;;;;;;;6.03;66.98;101355.69;1791570;79;21063;-80
2022/10/17 03:42:43;;;;;;;12.55;7.62;;;;;;;6.17;66.72;101364.51;1801822;79;21259;-79
2022/10/17 03:45:10;;;;;;;15.95;8.73;;;;;;;6.28;66.37;101361.53;1779934;78;20972;-81
2022/10/17 03:47:37;;;;;;;12.98;8.05;;;;;;;6.26;66.24;101358.16;1805560;78;21050;-74
2022/10/17 03:50:04;;;;;;;13.85;8.20;;;;;;;6.24;66.24;101355.25;1784941;79;21121;-78
2022/10/17 03:52:32;;;;;;;11.78;8.78;;;;;;;6.22;66.26;101354.48;1785599;79;21505;-80
2022/10/17 03:55:00;;;;;;;12.63;8.60;;;;;;;6.19;66.29;101363.45;1790621;79;21971;-75
2022/10/17 03:57:27;;;;;;;10.72;7.60;;;;;;;6.14;66.41;101368.17;1783509;79;20983;-76
2022/10/17 03:59:54;;;;;;;12.65;9.03;;;;;;;6.09;66.58;101357.09;1730061;81;21064;-78
2022/10/17 04:02:22;;;;;;;12.82;8.33;;;;;;;6.06;66.68;101361.23;1789564;79;21529;-75
2022/10/17 04:04:49;;;;;;;12.33;8.28;;;;;;;6.01;66.82;101362.86;1804587;79;21002;-77
2022/10/17 04:07:16;;;;;;;13.80;8.38;;;;;;;5.99;66.93;101362.56;1803100;79;21039;-76
2022/10/17 04:09:45;;;;;;;12.60;8.50;;;;;;;5.95;67.01;101359.72;1800946;78;21072;-78
2022/10/17 04:12:14;;;;;;;15.50;8.40;;;;;;;5.92;67.06;101360.77;1795868;79;21049;-78
2022/10/17 04:14:40;;;;;;;9.95;7.87;;;;;;;5.90;67.13;101370.09;1758763;79;21163;-79
2022/10/17 04:17:08;;;;;;;13.32;8.33;;;;;;;5.89;67.25;101366.23;1785222;79;20983;-77
2022/10/17 04:19:35;;;;;;;12.18;7.40;;;;;;;5.85;67.30;101360.34;1721239;83;21126;-77
2022/10/17 04:22:03;;;;;;;10.85;8.50;;;;;;;5.85;67.31;101354.19;1721131;83;21033;-80
2022/10/17 04:24:32;;;;;;;10.80;8.93;;;;;;;5.85;67.38;101343.64;1721335;83;21138;-79
2022/10/17 04:27:04;;;;;;;11.93;8.08;;;;;;;5.85;67.42;101350.23;1750355;79;20982;-78
2022/10/17 04:32:32;;;;;;;11.80;7.97;;;;;;;6.07;67.04;101338.72;1764821;78;21015;-78
2022/10/17 04:35:05;;;;;;;13.62;7.92;;;;;;;6.04;66.94;101340.70;1820843;78;21072;-80
2022/10/17 04:37:32;;;;;;;13.28;8.63;;;;;;;6.00;67.01;101336.58;1820857;78;21500;-77
2022/10/17 04:40:00;;;;;;;14.98;7.60;;;;;;;6.00;67.02;101341.37;1827305;77;21025;-80
2022/10/17 04:42:28;;;;;;;14.20;9.13;;;;;;;5.98;67.10;101348.53;1826262;78;21058;-80
2022/10/17 04:44:54;;;;;;;12.43;9.20;;;;;;;5.96;67.08;101343.83;1790139;77;21238;-81
2022/10/17 04:47:21;;;;;;;11.33;8.40;;;;;;;5.96;67.08;101354.38;1811014;78;21612;-78
2022/10/17 04:49:48;;;;;;;15.30;8.73;;;;;;;5.95;67.07;101343.48;1826195;78;21070;-79
2022/10/17 04:52:15;;;;;;;12.10;8.68;;;;;;;5.95;67.03;101350.48;1821377;78;21620;-79
2022/10/17 04:54:44;;;;;;;13.50;8.50;;;;;;;5.96;66.99;101343.00;1804343;78;21454;-80
2022/10/17 04:57:12;;;;;;;13.18;7.90;;;;;;;5.96;66.94;101345.63;1812217;78;21135;-79
2022/10/17 04:59:39;;;;;;;11.97;8.15;;;;;;;5.98;66.84;101345.90;1816398;77;21025;-79
2022/10/17 05:02:14;;;;;;;11.70;8.85;;;;;;;5.99;66.82;101351.56;1828972;77;21073;-79
2022/10/17 05:04:40;;;;;;;11.05;8.60;;;;;;;6.01;66.74;101354.95;1815892;77;21033;-80
2022/10/17 05:07:08;;;;;;;17.30;9.93;;;;;;;6.04;66.63;101363.13;1804398;78;21006;-80
2022/10/17 05:09:37;;;;;;;14.07;8.50;;;;;;;6.05;66.59;101367.47;1822536;78;21082;-78
2022/10/17 05:12:04;;;;;;;11.70;9.15;;;;;;;6.06;66.63;101372.63;1818586;78;20998;-80
2022/10/17 05:14:33;;;;;;;15.15;9.28;;;;;;;6.06;66.63;101376.58;1808692;77;21498;-79
2022/10/17 05:17:00;;;;;;;11.00;8.15;;;;;;;6.07;66.58;101366.41;1824418;78;21083;-81
2022/10/17 05:19:28;;;;;;;15.72;9.20;;;;;;;6.10;66.53;101360.95;1801044;78;21064;-80
2022/10/17 05:21:54;;;;;;;11.78;8.63;;;;;;;6.15;66.41;101370.36;1820172;77;21262;-81
2022/10/17 05:24:26;;;;;;;12.65;9.10;;;;;;;6.19;66.32;101380.61;1817332;77;21037;-79
2022/10/17 05:26:55;;;;;;;15.00;9.28;;;;;;;6.24;66.18;101373.73;1787342;78;21046;-80
2022/10/17 05:29:22;;;;;;;13.10;9.60;;;;;;;6.29;66.10;101372.94;1803352;77;21354;-80
2022/10/17 05:31:50;;;;;;;15.35;8.88;;;;;;;6.34;65.86;101374.81;1814596;78;21041;-82
2022/10/17 05:34:17;;;;;;;13.98;8.50;;;;;;;6.41;65.73;101371.28;1796227;79;21137;-81
2022/10/17 05:36:44;;;;;;;15.08;8.70;;;;;;;6.46;65.47;101371.34;1786573;79;21113;-82
2022/10/17 05:39:13;;;;;;;13.70;8.83;;;;;;;6.53;65.35;101371.80;1706102;82;21001;-80
2022/10/17 05:41:40;;;;;;;17.40;9.38;;;;;;;6.59;65.02;101369.23;1723155;82;21092;-78
2022/10/17 05:44:07;;;;;;;14.35;8.70;;;;;;;6.65;64.89;101365.69;1745195;82;21133;-80
2022/10/17 05:46:35;;;;;;;13.40;8.93;;;;;;;6.73;64.73;101379.70;1789057;79;21091;-81
2022/10/17 05:49:01;;;;;;;10.82;8.53;;;;;;;6.80;64.47;101377.03;1794797;79;21033;-81
2022/10/17 05:51:28;;;;;;;11.20;8.20;;;;;;;6.88;64.27;101377.83;1715253;82;21037;-79
2022/10/17 05:53:55;;;;;;;15.48;9.08;;;;;;;6.97;63.95;101385.59;1716697;82;21038;-79
2022/10/17 05:56:23;;;;;;;22.65;9.80;;;;;;;7.07;63.51;101395.92;1742997;81;21018;-80
2022/10/17 05:58:50;;;;;;;16.82;9.15;;;;;;;7.15;63.33;101386.15;1734619;82;21121;-80
2022/10/17 06:01:19;;;;;;;18.90;9.20;;;;;;;7.22;63.20;101387.39;1739070;82;21022;-79
2022/10/17 06:03:46;;;;;;;14.60;7.92;;;;;;;7.30;62.66;101379.77;1745331;81;21569;-78
2022/10/17 06:06:13;;;;;;;14.55;8.30;;;;;;;7.33;62.35;101380.89;1730849;82;21075;-79
2022/10/17 06:08:43;;;;;;;12.40;8.50;;;;;;;7.43;61.95;101384.57;1739852;80;21114;-76
2022/10/17 06:11:12;;;;;;;13.32;8.20;;;;;;;7.51;61.81;101382.72;1737754;81;21099;-78
2022/10/17 06:13:40;;;;;;;16.00;8.30;;;;;;;7.57;61.48;101384.08;1738749;82;21621;-82
2022/10/17 06:16:08;;;;;;;12.35;8.90;;;;;;;7.64;61.32;101398.09;1747983;82;21015;-81
2022/10/17 06:18:37;;;;;;;14.53;9.00;;;;;;;7.72;60.95;101398.03;1748249;82;21059;-77
2022/10/17 06:21:08;;;;;;;12.10;9.08;;;;;;;7.77;60.75;101391.45;1748221;82;21014;-79
2022/10/17 06:23:36;;;;;;;;;;;;;;;7.83;60.70;101398.95;1747135;82;21765;-79
2022/10/17 06:26:05;;;;;;;11.80;7.65;;;;;;;7.91;60.38;101392.27;1747024;82;20124;-80
2022/10/17 06:28:32;;;;;;;14.15;8.60;;;;;;;7.97;60.11;101399.77;1741447;82;21508;-79
2022/10/17 06:31:07;;;;;;;15.03;9.03;;;;;;;8.04;60.16;101397.05;1731491;82;21046;-80
2022/10/17 06:33:34;;;;;;;12.78;7.62;;;;;;;8.13;60.02;101395.52;1742172;79;21121;-80
2022/10/17 06:36:03;;;;;;;14.78;8.10;;;;;;;8.21;59.61;101398.48;1800172;77;21098;-79
2022/10/17 06:38:31;;;;;;;12.80;7.62;;;;;;;8.31;59.54;101415.38;1808987;79;20982;-80
2022/10/17 06:41:12;;;;;;;15.85;8.03;;;;;;;8.40;59.20;101413.37;1813553;78;21057;-81
2022/10/17 06:43:42;;;;;;;10.68;7.80;;;;;;;8.49;59.14;101420.30;1814269;79;20990;-78
2022/10/17 06:46:28;;;;;;;12.60;9.18;;;;;;;8.59;58.80;101422.63;1803700;79;21077;-75
2022/10/17 06:48:56;;;;;;;12.37;8.28;;;;;;;8.64;58.66;101409.89;1811448;78;21499;-75
2022/10/17 06:51:35;;;;;;;11.95;8.70;;;;;;;8.74;57.87;101418.83;1804227;79;21100;-76
2022/10/17 06:54:03;;;;;;;11.65;8.30;;;;;;;8.83;57.99;101410.69;1812915;78;21035;-78
2022/10/17 06:56:48;;;;;;;16.40;8.50;;;;;;;8.92;57.30;101410.45;1792667;77;21490;-78
2022/10/17 06:59:34;;;;;;;13.40;7.92;;;;;;;9.00;57.28;101420.85;1806868;79;21538;-79
2022/10/17 07:02:04;;;;;;;19.42;8.95;;;;;;;9.07;57.04;101413.26;1787669;77;21524;-77
2022/10/17 07:04:32;;;;;;;15.08;8.75;;;;;;;9.14;56.97;101413.66;1791705;79;21010;-78
2022/10/17 07:07:01;;;;;;;14.43;8.13;;;;;;;9.18;56.58;101402.67;1810314;77;21096;-79
2022/10/17 07:09:29;;;;;;;13.30;8.60;;;;;;;9.24;56.48;101406.17;1786964;79;21030;-78
2022/10/17 07:11:59;;;;;;;12.65;8.25;;;;;;;9.33;56.37;101398.46;1795205;79;21034;-78
2022/10/17 07:14:30;;;;;;;11.20;7.37;;;;;;;9.39;56.20;101411.27;1801210;79;21805;-79
2022/10/17 07:16:58;;;;;;;14.58;8.50;;;;;;;9.48;56.21;101409.69;1799663;78;21034;-78
2022/10/17 07:19:27;;;;;;;15.28;8.48;;;;;;;9.56;56.10;101426.72;1805083;78;21042;-79
2022/10/17 07:21:54;;;;;;;11.05;7.87;;;;;;;9.64;55.79;101421.64;1800146;77;21064;-75
2022/10/17 07:24:21;;;;;;;13.65;8.05;;;;;;;9.73;55.71;101425.85;1812942;79;21021;-72
2022/10/17 07:26:49;;;;;;;12.90;7.75;;;;;;;9.83;55.54;101436.95;1805268;77;21247;-73
2022/10/17 07:29:16;;;;;;;10.28;7.50;;;;;;;9.90;54.91;101438.62;1816429;78;21049;-73
2022/10/17 07:31:47;;;;;;;12.70;7.95;;;;;;;9.98;54.84;101442.00;1801381;77;20986;-73
2022/10/17 07:34:13;;;;;;;14.38;8.35;;;;;;;10.05;54.75;101441.88;1801743;79;21042;-74
2022/10/17 07:36:40;;;;;;;15.80;8.33;;;;;;;10.12;54.78;101440.42;1808995;78;21085;-73
2022/10/17 07:39:07;;;;;;;15.38;8.10;;;;;;;10.23;54.66;101432.90;1808724;79;21053;-73
2022/10/17 07:41:35;;;;;;;13.05;8.40;;;;;;;10.34;54.58;101422.28;1779682;78;21029;-75
2022/10/17 07:44:03;;;;;;;16.50;8.50;;;;;;;10.48;54.26;101415.83;1804816;78;21081;-76
2022/10/17 07:46:35;;;;;;;11.50;8.13;;;;;;;10.65;53.75;101409.13;1802842;77;21076;-75
2022/10/17 07:49:01;;;;;;;11.80;8.33;;;;;;;10.80;53.56;101405.67;1770547;80;21099;-75
2022/10/17 07:51:28;;;;;;;16.27;8.10;;;;;;;10.94;53.08;101404.51;1745241;80;21215;-75
2022/10/17 07:53:55;;;;;;;13.80;8.68;;;;;;;11.09;53.17;101415.67;1761532;79;21552;-74
2022/10/17 07:56:23;;;;;;;15.63;8.73;;;;;;;11.24;52.87;101422.80;1773894;80;21041;-81
2022/10/17 07:58:52;;;;;;;16.02;9.68;;;;;;;11.37;52.39;101423.44;1732351;81;21039;-81
2022/10/17 08:01:18;;;;;;;16.60;8.85;;;;;;;11.48;52.19;101418.04;1798107;78;21489;-75
2022/10/17 08:03:47;;;;;;;12.78;7.50;;;;;;;11.63;51.72;101408.35;1801876;79;21089;-75
2022/10/17 08:06:15;;;;;;;11.10;7.58;;;;;;;11.74;50.97;101414.91;1796359;78;21046;-78
2022/10/17 08:08:41;;;;;;;13.20;7.53;;;;;;;11.83;50.93;101405.28;1796475;79;21002;-78
2022/10/17 08:11:10;;;;;;;11.83;7.20;;;;;;;11.92;51.12;101397.36;1816400;78;21065;-77
2022/10/17 08:13:39;;;;;;;11.60;7.47;;;;;;;12.07;50.41;101401.81;1810746;78;21013;-73
2022/10/17 08:16:08;;;;;;;13.18;8.45;;;;;;;12.20;50.23;101410.86;1797697;77;22220;-72
2022/10/17 08:18:35;;;;;;;10.88;7.50;;;;;;;12.31;49.93;101412.07;1788463;79;21624;-72
2022/10/17 08:21:07;;;;;;;16.40;7.35;;;;;;;12.44;49.50;101398.95;1803295;79;21025;-72
2022/10/17 08:23:35;;;;;;;12.40;7.67;;;;;;;12.54;49.16;101403.81;1787180;78;21077;-71
2022/10/17 08:26:03;;;;;;;12.65;7.55;;;;;;;12.64;48.66;101409.14;1807677;77;21002;-72
2022/10/17 08:28:32;;;;;;;11.18;6.45;;;;;;;12.70;48.28;101407.24;1804078;79;21137;-75
2022/10/17 08:31:05;;;;;;;8.03;6.45;;;;;;;12.75;48.02;101417.84;1777165;78;21089;-76
2022/10/17 08:33:33;;;;;;;11.73;6.67;;;;;;;12.76;47.93;101413.34;1793854;79;20985;-79
2022/10/17 08:36:00;;;;;;;22.95;7.70;;;;;;;12.81;48.07;101399.09;1807798;77;21026;-78
2022/10/17 08:38:29;;;;;;;10.60;7.12;;;;;;;12.93;48.16;101395.78;1799380;78;21115;-77
2022/10/17 08:41:06;;;;;;;11.70;7.25;;;;;;;13.04;47.80;101378.75;1798418;78;21134;-76
2022/10/17 08:43:52;;;;;;;13.62;7.35;;;;;;;13.15;47.71;101374.58;1807121;78;21017;-77
2022/10/17 08:46:19;;;;;;;10.20;6.37;;;;;;;13.35;47.30;101377.58;1807951;79;21092;-78
2022/10/17 08:48:46;;;;;;;10.30;6.35;;;;;;;13.51;46.82;101384.95;1797113;78;21105;-77
2022/10/17 08:51:20;;;;;;;7.75;5.60;;;;;;;13.62;46.66;101372.39;1805457;79;21002;-77
2022/10/17 08:54:13;;;;;;;11.57;6.45;;;;;;;13.71;46.14;101370.17;1804458;78;21199;-77
2022/10/17 08:56:48;;;;;;;11.48;6.65;;;;;;;13.81;46.53;101368.31;1786707;78;21053;-77
2022/10/17 08:59:22;;;;;;;9.15;5.80;;;;;;;14.08;46.30;101360.75;1800768;77;21076;-77
2022/10/17 09:02:15;;;;;;;10.40;6.03;;;;;;;14.45;45.96;101360.26;1792170;78;21518;-75
2022/10/17 09:04:55;;;;;;;8.67;6.33;;;;;;;15.28;44.35;101365.22;1793643;77;21007;-75
2022/10/17 09:07:57;;;;;;;13.83;7.22;;;;;;;15.28;44.35;101365.22;1802761;78;21561;-77
2022/10/17 09:10:47;;;;;;;9.88;6.60;;;;;;;15.71;43.73;101366.06;1788110;78;21672;-76
2022/10/17 09:13:35;;;;;;;9.83;6.53;;;;;;;16.22;42.42;101376.26;1792659;78;21003;-77
2022/10/17 09:16:23;;;;;;;14.58;6.92;;;;;;;16.64;42.16;101377.97;1796968;78;20999;-76
2022/10/17 09:19:04;;;;;;;14.00;7.58;;;;;;;17.06;41.46;101374.27;1807783;78;21005;-77
2022/10/17 09:22:12;;;;;;;9.50;6.42;;;;;;;17.59;40.55;101369.74;1791162;78;21143;-79
2022/10/17 09:24:47;;;;;;;10.40;6.90;;;;;;;18.15;39.90;101366.44;1811448;78;21026;-75
2022/10/17 09:27:34;;;;;;;9.70;6.20;;;;;;;18.51;39.03;101376.61;1807075;78;20998;-75
2022/10/17 09:30:12;;;;;;;7.33;5.78;;;;;;;18.59;38.69;101352.83;1805614;78;21049;-75
2022/10/17 09:32:41;;;;;;;9.23;6.92;;;;;;;18.50;38.54;101369.55;1795388;77;21053;-75
2022/10/17 09:35:13;;;;;;;8.00;6.03;;;;;;;18.59;38.55;101374.36;1810582;78;21019;-75
2022/10/17 09:37:40;;;;;;;11.08;6.58;;;;;;;18.79;38.45;101363.91;1801176;78;21012;-76
2022/10/17 09:40:11;;;;;;;9.53;7.10;;;;;;;19.21;38.36;101369.25;1766232;78;21020;-77
2022/10/17 09:42:37;;;;;;;15.78;6.87;;;;;;;19.78;38.35;101363.69;1812662;78;21049;-78
2022/10/17 09:45:18;;;;;;;13.18;7.30;;;;;;;20.48;36.85;101376.99;1815333;78;21100;-78
2022/10/17 09:47:55;;;;;;;13.83;6.75;;;;;;;20.85;35.52;101360.19;1812472;78;21722;-76
2022/10/17 09:50:30;;;;;;;10.78;6.20;;;;;;;20.89;35.22;101369.56;1821536;78;21640;-75
2022/10/17 09:53:14;;;;;;;9.75;6.62;;;;;;;20.85;35.12;101367.47;1818341;78;21104;-77
2022/10/17 09:55:47;;;;;;;;;;;;;;;21.00;35.49;101373.60;1820984;77;21065;-77
2022/10/17 09:58:14;;;;;;;7.67;5.70;;;;;;;21.28;34.56;101366.80;1813326;78;20560;-77
2022/10/17 10:00:43;;;;;;;9.65;6.62;;;;;;;21.49;34.36;101365.90;1768661;78;21068;-77
2022/10/17 10:03:21;;;;;;;13.58;6.58;;;;;;;21.67;33.77;101370.78;1803481;78;21033;-76
2022/10/17 10:06:16;;;;;;;7.97;6.03;;;;;;;21.75;33.28;101376.01;1789621;78;20994;-76
2022/10/17 10:08:53;;;;;;;9.95;6.20;;;;;;;21.84;33.51;101365.83;1818418;78;20994;-75
2022/10/17 10:11:23;;;;;;;9.33;6.20;;;;;;;21.91;33.61;101349.11;1816562;77;21102;-77
2022/10/17 10:13:51;;;;;;;6.40;5.30;;;;;;;22.29;33.44;101349.95;1822970;78;21075;-77
2022/10/17 10:16:25;;;;;;;8.55;6.20;;;;;;;22.68;32.85;101344.76;1818901;78;21492;-75
2022/10/17 10:18:53;;;;;;;8.83;6.60;;;;;;;23.00;32.27;101340.31;1812019;78;21112;-77
2022/10/17 10:21:24;;;;;;;9.28;6.05;;;;;;;23.08;31.68;101335.22;1811361;77;21117;-76
2022/10/17 10:24:12;;;;;;;9.60;6.03;;;;;;;22.87;31.76;101338.48;1798787;78;21576;-76
2022/10/17 10:26:44;;;;;;;6.83;5.92;;;;;;;22.69;31.96;101334.22;1812245;77;21140;-74
2022/10/17 10:29:31;;;;;;;6.62;5.90;;;;;;;22.81;32.13;101340.66;1814631;77;21084;-74
2022/10/17 10:32:23;;;;;;;8.38;6.15;;;;;;;23.25;31.73;101345.91;1815184;77;21458;-74
2022/10/17 10:34:54;;;;;;;10.75;6.17;;;;;;;23.39;30.99;101349.94;1795707;78;21050;-76
2022/10/17 10:37:31;;;;;;;6.65;5.92;;;;;;;23.36;31.72;101343.08;1793589;79;22387;-75
2022/10/17 10:40:02;;;;;;;8.30;6.53;;;;;;;23.80;31.02;101349.60;1782246;79;21101;-75
2022/10/17 10:42:36;;;;;;;6.85;5.92;;;;;;;23.98;30.29;101357.01;1791974;79;21051;-76
2022/10/17 10:45:21;;;;;;;7.95;6.05;;;;;;;24.02;30.17;101358.77;1796586;79;21073;-76
2022/10/17 10:49:29;;;;;;;9.40;6.28;;;;;;;23.97;30.35;101366.72;1859302;75;22453;-78
2022/10/17 10:51:56;;;;;;;9.15;6.92;;;;;;;23.83;30.70;101357.29;1850122;75;21536;-76
2022/10/17 10:54:27;;;;;;;10.48;6.10;;;;;;;24.10;30.89;101363.39;1853368;75;21745;-76
2022/10/17 10:56:59;;;;;;;8.60;6.08;;;;;;;24.67;30.47;101353.10;1846497;75;20949;-78
2022/10/17 10:59:36;;;;;;;7.20;6.03;;;;;;;25.13;29.79;101354.54;1876156;75;21006;-77
2022/10/17 11:02:17;;;;;;;8.48;6.45;;;;;;;25.25;29.65;101354.64;1851255;75;20980;-75
2022/10/17 11:04:58;;;;;;;7.62;6.42;;;;;;;25.29;29.56;101343.08;1842225;77;21741;-77
2022/10/17 11:07:51;;;;;;;7.20;5.35;;;;;;;25.34;29.54;101330.14;1846099;75;21074;-76
2022/10/17 11:10:53;;;;;;;10.03;6.72;;;;;;;25.42;29.22;101324.92;1843338;75;20928;-76
2022/10/17 11:13:32;;;;;;;8.05;6.15;;;;;;;25.38;29.12;101325.94;1835266;75;21058;-75
2022/10/17 11:16:16;;;;;;;7.78;6.47;;;;;;;25.31;29.31;101315.12;1804270;75;21075;-76
2022/10/17 11:19:21;;;;;;;10.35;6.42;;;;;;;25.42;29.30;101300.44;1843891;75;21532;-76
2022/10/17 11:22:17;;;;;;;7.60;6.58;;;;;;;25.73;29.21;101305.36;1745652;80;21241;-74
2022/10/17 11:25:06;;;;;;;9.00;6.30;;;;;;;26.17;28.94;101302.73;1790385;77;21061;-75
2022/10/17 11:27:34;;;;;;;9.35;6.22;;;;;;;26.56;28.84;101292.77;1768630;78;21523;-77
2022/10/17 11:30:02;;;;;;;11.93;9.95;;;;;;;26.69;28.22;101292.56;1771516;78;21519;-77
2022/10/17 11:32:47;;;;;;;15.85;8.48;;;;;;;26.58;28.34;101285.18;1776525;78;21064;-76
2022/10/17 11:35:29;;;;;;;8.85;7.72;;;;;;;26.78;28.37;101294.41;1767098;79;21274;-76
2022/10/17 11:38:30;;;;;;;10.18;6.83;;;;;;;27.08;28.22;101290.13;1773002;78;21024;-77
2022/10/17 11:40:58;;;;;;;15.00;8.10;;;;;;;27.10;28.15;101289.89;1770082;79;20985;-77
2022/10/17 11:43:35;;;;;;;9.70;6.03;;;;;;;27.02;27.99;101295.19;1803927;77;21024;-77
2022/10/17 11:46:23;;;;;;;7.85;5.65;;;;;;;26.93;27.48;101289.84;1799331;77;21138;-77
2022/10/17 11:49:01;;;;;;;11.43;7.03;;;;;;;26.64;27.53;101270.66;1802297;77;22431;-76
2022/10/17 11:51:29;;;;;;;7.22;5.92;;;;;;;26.55;27.88;101276.95;1798917;78;21072;-76
2022/10/17 11:54:13;;;;;;;8.00;6.47;;;;;;;26.63;27.74;101259.45;1792964;77;21516;-77
2022/10/17 11:57:36;;;;;;;8.90;6.22;;;;;;;26.87;27.85;101264.35;1799368;78;21076;-75